AUA50U LIML-LOWW
Flight info
| Callsign | AUA50U |
|---|---|
| Flight time | 0h 59m |
| Altitude | 34000 |
| Route | NESTI DCT ARALD/N0450F330 DCT ABTAN ABTAN2W |
| Aircraft | A320/M-SDE3FGHIRWY/LB1 |
Departure
| Time | 2026-04-30 13:41 |
|---|---|
| Airport | Milano Linate Airport (LIML) |
Arrival
| Time | 2026-04-30 14:41 |
|---|---|
| Airport | Vienna International Airport (LOWW) |
| Time | Latitude | Longitude | Altitude | Speed | Heading |
|---|---|---|---|---|---|
| 2026-04-30 13:01 | 45.45974 | 9.27967 | 360 ft | 0 kts | 0° |
| 2026-04-30 13:31 | 45.45926 | 9.27966 | 379 ft | 4 kts | 19° |
| 2026-04-30 13:32 | 45.45907 | 9.27914 | 360 ft | 1 kts | 90° |
| 2026-04-30 13:32 | 45.45907 | 9.27941 | 364 ft | 0 kts | 90° |
| 2026-04-30 13:36 | 45.45890 | 9.27974 | 362 ft | 11 kts | 146° |
| 2026-04-30 13:37 | 45.45760 | 9.27982 | 363 ft | 23 kts | 181° |
| 2026-04-30 13:37 | 45.45420 | 9.27978 | 360 ft | 26 kts | 180° |
| 2026-04-30 13:38 | 45.45081 | 9.27881 | 360 ft | 26 kts | 174° |
| 2026-04-30 13:38 | 45.44897 | 9.27919 | 360 ft | 27 kts | 165° |
| 2026-04-30 13:38 | 45.44515 | 9.27978 | 360 ft | 27 kts | 177° |
| 2026-04-30 13:39 | 45.44128 | 9.28016 | 360 ft | 28 kts | 176° |
| 2026-04-30 13:39 | 45.43738 | 9.28057 | 367 ft | 27 kts | 175° |
| 2026-04-30 13:40 | 45.43547 | 9.28079 | 361 ft | 23 kts | 177° |
| 2026-04-30 13:40 | 45.43444 | 9.27979 | 361 ft | 20 kts | 265° |
| 2026-04-30 13:40 | 45.43482 | 9.27831 | 364 ft | 15 kts | 337° |
| 2026-04-30 13:40 | 45.43678 | 9.27800 | 364 ft | 60 kts | 356° |
| 2026-04-30 13:41 | 45.44343 | 9.27728 | 360 ft | 128 kts | 355° |
| 2026-04-30 13:41 | 45.45378 | 9.27611 | 614 ft | 155 kts | 359° |
| 2026-04-30 13:41 | 45.46479 | 9.27416 | 1149 ft | 171 kts | 349° |
| 2026-04-30 13:41 | 45.47692 | 9.26889 | 1563 ft | 194 kts | 345° |
| 2026-04-30 13:42 | 45.49049 | 9.26219 | 1963 ft | 219 kts | 341° |
| 2026-04-30 13:42 | 45.50564 | 9.25452 | 2461 ft | 243 kts | 343° |
| 2026-04-30 13:42 | 45.53957 | 9.23739 | 4093 ft | 265 kts | 342° |
| 2026-04-30 13:43 | 45.55753 | 9.23138 | 5073 ft | 267 kts | 2° |
| 2026-04-30 13:43 | 45.57571 | 9.23642 | 6097 ft | 266 kts | 20° |
| 2026-04-30 13:43 | 45.59165 | 9.24964 | 7146 ft | 267 kts | 40° |
| 2026-04-30 13:43 | 45.60272 | 9.27118 | 8033 ft | 275 kts | 66° |
| 2026-04-30 13:44 | 45.60819 | 9.29767 | 8942 ft | 280 kts | 73° |
| 2026-04-30 13:44 | 45.61300 | 9.32475 | 9882 ft | 283 kts | 74° |
| 2026-04-30 13:44 | 45.61785 | 9.35231 | 10558 ft | 295 kts | 74° |
| 2026-04-30 13:44 | 45.62305 | 9.38189 | 10794 ft | 319 kts | 75° |
| 2026-04-30 13:45 | 45.63442 | 9.44634 | 11893 ft | 343 kts | 74° |
| 2026-04-30 13:45 | 45.64029 | 9.47962 | 12650 ft | 347 kts | 74° |
| 2026-04-30 13:45 | 45.64624 | 9.51329 | 13413 ft | 352 kts | 73° |
| 2026-04-30 13:46 | 45.65228 | 9.54743 | 14147 ft | 356 kts | 73° |
| 2026-04-30 13:46 | 45.65836 | 9.58191 | 14927 ft | 360 kts | 73° |
| 2026-04-30 13:46 | 45.66449 | 9.61675 | 15620 ft | 363 kts | 73° |
| 2026-04-30 13:46 | 45.67066 | 9.65185 | 16307 ft | 366 kts | 73° |
| 2026-04-30 13:47 | 45.67687 | 9.68721 | 16991 ft | 368 kts | 73° |
| 2026-04-30 13:47 | 45.68313 | 9.72287 | 17678 ft | 371 kts | 73° |
| 2026-04-30 13:47 | 45.68941 | 9.75882 | 18361 ft | 374 kts | 73° |
| 2026-04-30 13:47 | 45.69572 | 9.79502 | 18982 ft | 377 kts | 73° |
| 2026-04-30 13:48 | 45.70207 | 9.83154 | 19594 ft | 379 kts | 73° |
| 2026-04-30 13:48 | 45.70844 | 9.86826 | 20200 ft | 382 kts | 73° |
| 2026-04-30 13:48 | 45.71477 | 9.90474 | 20802 ft | 384 kts | 73° |
| 2026-04-30 13:48 | 45.72122 | 9.94198 | 21408 ft | 387 kts | 73° |
| 2026-04-30 13:49 | 45.72779 | 9.97992 | 21986 ft | 389 kts | 72° |
| 2026-04-30 13:49 | 45.73420 | 10.01712 | 22569 ft | 391 kts | 73° |
| 2026-04-30 13:49 | 45.74075 | 10.05537 | 23166 ft | 392 kts | 73° |
| 2026-04-30 13:49 | 45.74716 | 10.09282 | 23720 ft | 393 kts | 73° |
| 2026-04-30 13:50 | 45.75377 | 10.13146 | 24178 ft | 395 kts | 72° |
| 2026-04-30 13:50 | 45.76684 | 10.20793 | 25003 ft | 401 kts | 73° |
| 2026-04-30 13:50 | 45.77348 | 10.24683 | 25418 ft | 403 kts | 73° |
| 2026-04-30 13:51 | 45.78016 | 10.28598 | 25788 ft | 406 kts | 73° |
| 2026-04-30 13:51 | 45.78689 | 10.32545 | 26101 ft | 410 kts | 73° |
| 2026-04-30 13:51 | 45.79362 | 10.36521 | 26495 ft | 412 kts | 73° |
| 2026-04-30 13:51 | 45.80038 | 10.40525 | 26883 ft | 414 kts | 72° |
| 2026-04-30 13:52 | 45.80959 | 10.44427 | 27208 ft | 413 kts | 63° |
| 2026-04-30 13:52 | 45.82171 | 10.48171 | 27562 ft | 415 kts | 62° |
| 2026-04-30 13:52 | 45.83402 | 10.51920 | 27918 ft | 416 kts | 62° |
| 2026-04-30 13:52 | 45.84640 | 10.55684 | 28242 ft | 419 kts | 62° |
| 2026-04-30 13:53 | 45.85886 | 10.59486 | 28539 ft | 422 kts | 62° |
| 2026-04-30 13:53 | 45.87133 | 10.63308 | 28874 ft | 425 kts | 62° |
| 2026-04-30 13:53 | 45.88380 | 10.67154 | 29286 ft | 424 kts | 63° |
| 2026-04-30 13:53 | 45.89620 | 10.70985 | 29719 ft | 424 kts | 62° |
| 2026-04-30 13:54 | 45.90865 | 10.74834 | 29993 ft | 426 kts | 62° |
| 2026-04-30 13:54 | 45.92119 | 10.78712 | 30265 ft | 429 kts | 62° |
| 2026-04-30 13:54 | 45.93375 | 10.82601 | 30509 ft | 431 kts | 62° |
| 2026-04-30 13:54 | 45.94635 | 10.86513 | 30717 ft | 432 kts | 62° |
| 2026-04-30 13:55 | 45.95895 | 10.90439 | 30950 ft | 433 kts | 62° |
| 2026-04-30 13:55 | 45.97156 | 10.94372 | 31226 ft | 433 kts | 62° |
| 2026-04-30 13:55 | 45.98415 | 10.98297 | 31498 ft | 433 kts | 62° |
| 2026-04-30 13:55 | 45.99674 | 11.02230 | 31761 ft | 433 kts | 62° |
| 2026-04-30 13:56 | 46.00932 | 11.06166 | 32041 ft | 433 kts | 62° |
| 2026-04-30 13:56 | 46.02188 | 11.10097 | 32307 ft | 433 kts | 62° |
| 2026-04-30 13:56 | 46.03446 | 11.14034 | 32637 ft | 431 kts | 62° |
| 2026-04-30 13:56 | 46.04694 | 11.17937 | 33063 ft | 428 kts | 62° |
| 2026-04-30 13:57 | 46.05940 | 11.21834 | 33351 ft | 429 kts | 62° |
| 2026-04-30 13:57 | 46.07182 | 11.25734 | 33641 ft | 429 kts | 62° |
| 2026-04-30 13:57 | 46.08422 | 11.29644 | 33929 ft | 429 kts | 62° |
| 2026-04-30 13:57 | 46.09658 | 11.33558 | 34183 ft | 430 kts | 62° |
| 2026-04-30 13:58 | 46.13344 | 11.45296 | 34246 ft | 427 kts | 62° |
| 2026-04-30 13:59 | 46.15796 | 11.53102 | 34234 ft | 427 kts | 62° |
| 2026-04-30 13:59 | 46.18248 | 11.60909 | 34234 ft | 427 kts | 62° |
| 2026-04-30 14:00 | 46.20697 | 11.68726 | 34231 ft | 427 kts | 62° |
| 2026-04-30 14:00 | 46.23942 | 11.79142 | 34229 ft | 428 kts | 62° |
| 2026-04-30 14:01 | 46.26369 | 11.86984 | 34229 ft | 428 kts | 62° |
| 2026-04-30 14:01 | 46.28798 | 11.94831 | 34228 ft | 427 kts | 62° |
| 2026-04-30 14:02 | 46.31217 | 12.02674 | 34223 ft | 427 kts | 62° |
| 2026-04-30 14:02 | 46.33631 | 12.10528 | 34254 ft | 427 kts | 62° |
| 2026-04-30 14:03 | 46.36035 | 12.18392 | 34246 ft | 427 kts | 62° |
| 2026-04-30 14:03 | 46.38432 | 12.26243 | 34239 ft | 427 kts | 62° |
| 2026-04-30 14:04 | 46.40832 | 12.34108 | 34240 ft | 427 kts | 62° |
| 2026-04-30 14:04 | 46.43231 | 12.41989 | 34241 ft | 427 kts | 62° |
| 2026-04-30 14:05 | 46.45600 | 12.49811 | 34241 ft | 427 kts | 62° |
| 2026-04-30 14:05 | 46.47971 | 12.57698 | 34265 ft | 426 kts | 63° |
| 2026-04-30 14:06 | 46.51521 | 12.69522 | 34254 ft | 425 kts | 62° |
| 2026-04-30 14:07 | 46.55061 | 12.81319 | 34242 ft | 425 kts | 63° |
| 2026-04-30 14:08 | 46.58576 | 12.93142 | 34237 ft | 425 kts | 63° |
| 2026-04-30 14:08 | 46.62084 | 13.04994 | 34281 ft | 425 kts | 63° |
| 2026-04-30 14:09 | 46.64419 | 13.12906 | 34272 ft | 426 kts | 63° |
| 2026-04-30 14:10 | 46.67900 | 13.24773 | 34279 ft | 425 kts | 63° |
| 2026-04-30 14:10 | 46.70382 | 13.32533 | 34271 ft | 422 kts | 59° |
| 2026-04-30 14:11 | 46.73142 | 13.40069 | 34265 ft | 421 kts | 58° |
| 2026-04-30 14:11 | 46.75919 | 13.47572 | 34278 ft | 420 kts | 58° |
| 2026-04-30 14:12 | 46.78625 | 13.55147 | 34301 ft | 421 kts | 59° |
| 2026-04-30 14:12 | 46.81286 | 13.62742 | 34296 ft | 420 kts | 59° |
| 2026-04-30 14:13 | 46.83945 | 13.70331 | 34302 ft | 419 kts | 59° |
| 2026-04-30 14:13 | 46.86609 | 13.77911 | 34294 ft | 419 kts | 59° |
| 2026-04-30 14:14 | 46.89267 | 13.85505 | 34302 ft | 420 kts | 59° |
| 2026-04-30 14:14 | 46.91916 | 13.93110 | 34306 ft | 420 kts | 59° |
| 2026-04-30 14:15 | 46.94558 | 14.00719 | 34313 ft | 419 kts | 59° |
| 2026-04-30 14:15 | 46.97170 | 14.08257 | 34337 ft | 417 kts | 59° |
| 2026-04-30 14:16 | 46.99797 | 14.15837 | 34326 ft | 417 kts | 59° |
| 2026-04-30 14:16 | 47.02417 | 14.23420 | 34316 ft | 417 kts | 60° |
| 2026-04-30 14:17 | 47.05028 | 14.31015 | 34313 ft | 417 kts | 60° |
| 2026-04-30 14:17 | 47.07632 | 14.38616 | 34310 ft | 417 kts | 60° |
| 2026-04-30 14:18 | 47.10230 | 14.46227 | 34312 ft | 416 kts | 60° |
| 2026-04-30 14:18 | 47.12900 | 14.58428 | 34332 ft | 421 kts | 71° |
| 2026-04-30 14:19 | 47.15053 | 14.70961 | 34300 ft | 422 kts | 71° |
| 2026-04-30 14:20 | 47.16485 | 14.79330 | 34283 ft | 423 kts | 71° |
| 2026-04-30 14:20 | 47.18626 | 14.91910 | 34281 ft | 423 kts | 71° |
| 2026-04-30 14:21 | 47.20049 | 15.00317 | 34105 ft | 424 kts | 72° |
| 2026-04-30 14:21 | 47.21467 | 15.08747 | 33372 ft | 425 kts | 72° |
| 2026-04-30 14:22 | 47.22179 | 15.13000 | 32265 ft | 430 kts | 72° |
| 2026-04-30 14:22 | 47.23600 | 15.21521 | 30584 ft | 425 kts | 73° |
| 2026-04-30 14:22 | 47.24291 | 15.25709 | 29796 ft | 419 kts | 73° |
| 2026-04-30 14:23 | 47.25643 | 15.33939 | 28331 ft | 409 kts | 73° |
| 2026-04-30 14:23 | 47.26973 | 15.41999 | 26928 ft | 402 kts | 73° |
| 2026-04-30 14:24 | 47.28276 | 15.49940 | 25581 ft | 396 kts | 73° |
| 2026-04-30 14:24 | 47.28918 | 15.53882 | 24869 ft | 395 kts | 73° |
| 2026-04-30 14:25 | 47.30334 | 15.61572 | 23555 ft | 387 kts | 63° |
| 2026-04-30 14:25 | 47.33497 | 15.67769 | 22307 ft | 376 kts | 46° |
| 2026-04-30 14:26 | 47.36970 | 15.73437 | 21218 ft | 368 kts | 46° |
| 2026-04-30 14:26 | 47.38681 | 15.76219 | 20691 ft | 364 kts | 46° |
| 2026-04-30 14:26 | 47.42066 | 15.81717 | 19653 ft | 359 kts | 46° |
| 2026-04-30 14:27 | 47.43737 | 15.84436 | 19146 ft | 356 kts | 46° |
| 2026-04-30 14:27 | 47.45394 | 15.87144 | 18639 ft | 354 kts | 46° |
| 2026-04-30 14:27 | 47.47038 | 15.89837 | 18072 ft | 351 kts | 46° |
| 2026-04-30 14:28 | 47.50287 | 15.95168 | 16927 ft | 347 kts | 46° |
| 2026-04-30 14:28 | 47.51893 | 15.97811 | 16393 ft | 344 kts | 46° |
| 2026-04-30 14:28 | 47.53488 | 16.00442 | 15880 ft | 342 kts | 46° |
| 2026-04-30 14:28 | 47.55075 | 16.03057 | 15375 ft | 340 kts | 47° |
| 2026-04-30 14:29 | 47.58218 | 16.08231 | 14371 ft | 336 kts | 46° |
| 2026-04-30 14:29 | 47.60805 | 16.12495 | 13491 ft | 333 kts | 47° |
| 2026-04-30 14:30 | 47.65861 | 16.20874 | 12012 ft | 314 kts | 47° |
| 2026-04-30 14:31 | 47.68617 | 16.25458 | 11609 ft | 280 kts | 47° |
| 2026-04-30 14:31 | 47.71155 | 16.29681 | 10371 ft | 269 kts | 47° |
| 2026-04-30 14:31 | 47.72386 | 16.31730 | 9943 ft | 262 kts | 48° |
| 2026-04-30 14:32 | 47.74860 | 16.35841 | 9129 ft | 263 kts | 47° |
| 2026-04-30 14:32 | 47.76066 | 16.37846 | 8609 ft | 259 kts | 47° |
| 2026-04-30 14:32 | 47.77259 | 16.39840 | 8085 ft | 256 kts | 47° |
| 2026-04-30 14:33 | 47.78440 | 16.41812 | 7578 ft | 254 kts | 47° |
| 2026-04-30 14:33 | 47.80774 | 16.45711 | 6568 ft | 253 kts | 47° |
| 2026-04-30 14:33 | 47.81952 | 16.47674 | 6039 ft | 255 kts | 47° |
| 2026-04-30 14:34 | 47.83136 | 16.49654 | 5506 ft | 257 kts | 46° |
| 2026-04-30 14:34 | 47.84327 | 16.51652 | 4994 ft | 259 kts | 46° |
| 2026-04-30 14:34 | 47.85525 | 16.53667 | 4463 ft | 260 kts | 46° |
| 2026-04-30 14:34 | 47.86730 | 16.55691 | 3940 ft | 262 kts | 45° |
| 2026-04-30 14:35 | 47.88724 | 16.59044 | 3099 ft | 254 kts | 47° |
| 2026-04-30 14:35 | 47.90189 | 16.61448 | 2981 ft | 213 kts | 38° |
| 2026-04-30 14:35 | 47.91417 | 16.62387 | 2990 ft | 190 kts | 18° |
| 2026-04-30 14:36 | 47.92624 | 16.62965 | 3015 ft | 176 kts | 15° |
| 2026-04-30 14:36 | 47.93768 | 16.63470 | 2996 ft | 170 kts | 15° |
| 2026-04-30 14:36 | 47.94903 | 16.63943 | 2987 ft | 168 kts | 15° |
| 2026-04-30 14:36 | 47.96041 | 16.64356 | 2984 ft | 170 kts | 3° |
| 2026-04-30 14:37 | 47.97197 | 16.64060 | 2946 ft | 171 kts | 346° |
| 2026-04-30 14:37 | 47.98343 | 16.63572 | 2793 ft | 172 kts | 346° |
| 2026-04-30 14:37 | 47.99490 | 16.63085 | 2567 ft | 168 kts | 347° |
| 2026-04-30 14:37 | 48.00566 | 16.62630 | 2348 ft | 152 kts | 346° |
| 2026-04-30 14:38 | 48.01531 | 16.62223 | 2164 ft | 138 kts | 347° |
| 2026-04-30 14:38 | 48.02441 | 16.61841 | 1954 ft | 134 kts | 346° |
| 2026-04-30 14:38 | 48.03343 | 16.61461 | 1791 ft | 136 kts | 346° |
| 2026-04-30 14:38 | 48.04241 | 16.61083 | 1606 ft | 134 kts | 346° |
| 2026-04-30 14:39 | 48.05139 | 16.60712 | 1397 ft | 134 kts | 345° |
| 2026-04-30 14:39 | 48.06028 | 16.60337 | 1247 ft | 131 kts | 346° |
| 2026-04-30 14:39 | 48.06925 | 16.59952 | 1051 ft | 132 kts | 346° |
| 2026-04-30 14:40 | 48.08698 | 16.59200 | 698 ft | 130 kts | 345° |
| 2026-04-30 14:40 | 48.09553 | 16.58840 | 617 ft | 119 kts | 344° |
| 2026-04-30 14:40 | 48.10210 | 16.58570 | 621 ft | 81 kts | 345° |
| 2026-04-30 14:40 | 48.10679 | 16.58377 | 611 ft | 61 kts | 344° |
| 2026-04-30 14:41 | 48.10930 | 16.58251 | 615 ft | 27 kts | 331° |
| 2026-04-30 14:41 | 48.11049 | 16.58051 | 619 ft | 23 kts | 299° |
| 2026-04-30 14:41 | 48.11122 | 16.57826 | 614 ft | 25 kts | 294° |
| 2026-04-30 14:41 | 48.11200 | 16.57588 | 616 ft | 26 kts | 297° |
| 2026-04-30 14:42 | 48.11280 | 16.57342 | 615 ft | 27 kts | 295° |
| 2026-04-30 14:42 | 48.11362 | 16.57087 | 615 ft | 28 kts | 296° |
| 2026-04-30 14:42 | 48.11431 | 16.56888 | 616 ft | 15 kts | 314° |
| 2026-04-30 14:42 | 48.11528 | 16.56915 | 608 ft | 15 kts | 15° |
| 2026-04-30 14:43 | 48.11607 | 16.56833 | 619 ft | 12 kts | 296° |
| 2026-04-30 14:43 | 48.11648 | 16.56816 | 608 ft | 7 kts | 21° |
| 2026-04-30 14:43 | 48.11689 | 16.56844 | 619 ft | 1 kts | 25° |
| 2026-04-30 14:43 | 48.11691 | 16.56845 | 619 ft | 0 kts | 25° |